Time;durP1;ratioP1;P1;durP2;ratioP2;P2;SDS_P1;SDS_P2;PMS_P1;PMS_P2;Temp;Humidity;BMP_temperature;BMP_pressure;BME280_temperature;BME280_humidity;BME280_pressure;Samples;Min_cycle;Max_cycle;Signal;HPM_P1;HPM_P2
2023/08/27 00:00:37;;;;;;;;;;;;;;;;;;5025326;28;20007;-70
2023/08/27 00:03:05;;;;;;;;;;;;;;;;;;5028990;28;20013;-71
2023/08/27 00:05:33;;;;;;;;;;;;;;;;;;5028450;28;20031;-70
2023/08/27 00:08:01;;;;;;;;;;;;;;;;;;5011683;28;19925;-70
2023/08/27 00:10:27;;;;;;;;;;;;;;;;;;5009916;28;19963;-70
2023/08/27 00:12:52;;;;;;;;;;;;;;;;;;5010037;28;19959;-69
2023/08/27 00:15:17;;;;;;;;;;;;;;;;;;5012307;28;19917;-70
2023/08/27 00:17:43;;;;;;;;;;;;;;;;;;5007739;28;20867;-70
2023/08/27 00:20:11;;;;;;;;;;;;;;;;;;5026844;28;19986;-69
2023/08/27 00:22:37;;;;;;;;;;;;;;;;;;5011124;28;19928;-68
2023/08/27 00:25:02;;;;;;;;;;;;;;;;;;4992999;28;20422;-70
2023/08/27 00:27:33;;;;;;;;;;;;;;;;;;5028192;28;19921;-73
2023/08/27 00:29:59;;;;;;;;;;;;;;;;;;5010057;28;19928;-70
2023/08/27 00:32:27;;;;;;;;;;;;;;;;;;5026762;28;20380;-70
2023/08/27 00:34:52;;;;;;;;;;;;;;;;;;4993446;28;19921;-69
2023/08/27 00:37:17;;;;;;;;;;;;;;;;;;5009329;28;19928;-70
2023/08/27 00:39:46;;;;;;;;;;;;;;;;;;5028027;28;19927;-70
2023/08/27 00:42:11;;;;;;;;;;;;;;;;;;5009091;28;19920;-69
2023/08/27 00:44:37;;;;;;;;;;;;;;;;;;5012564;28;20369;-69
2023/08/27 00:47:05;;;;;;;;;;;;;;;;;;5010959;28;20002;-71
2023/08/27 00:49:31;;;;;;;;;;;;;;;;;;5010144;28;20069;-71
2023/08/27 00:51:57;;;;;;;;;;;;;;;;;;5009365;28;19924;-71
2023/08/27 00:54:25;;;;;;;;;;;;;;;;;;4994755;28;19932;-71
2023/08/27 00:56:50;;;;;;;;;;;;;;;;;;5010975;28;19920;-70
2023/08/27 00:59:15;;;;;;;;;;;;;;;;;;5011857;28;19917;-71
2023/08/27 01:01:46;;;;;;;;;;;;;;;;;;5009696;28;19925;-70
2023/08/27 01:04:12;;;;;;;;;;;;;;;;;;5025971;28;19935;-71
2023/08/27 01:06:40;;;;;;;;;;;;;;;;;;4990339;28;19913;-72
2023/08/27 01:09:09;;;;;;;;;;;;;;;;;;4992672;28;21156;-71
2023/08/27 01:11:37;;;;;;;;;;;;;;;;;;4993951;28;19927;-71
2023/08/27 01:14:05;;;;;;;;;;;;;;;;;;5011496;28;19945;-71
2023/08/27 01:16:34;;;;;;;;;;;;;;;;;;4993695;28;19920;-71
2023/08/27 01:19:03;;;;;;;;;;;;;;;;;;4991296;28;19921;-71
2023/08/27 01:21:29;;;;;;;;;;;;;;;;;;5028548;28;19916;-71
2023/08/27 01:23:54;;;;;;;;;;;;;;;;;;5011220;28;19949;-71
2023/08/27 01:26:19;;;;;;;;;;;;;;;;;;5011102;28;19920;-71
2023/08/27 01:28:47;;;;;;;;;;;;;;;;;;5012142;28;19920;-71
2023/08/27 01:31:15;;;;;;;;;;;;;;;;;;5007375;28;20012;-71
2023/08/27 01:33:40;;;;;;;;;;;;;;;;;;4991619;28;19917;-71
2023/08/27 01:36:08;;;;;;;;;;;;;;;;;;5027116;28;20621;-71
2023/08/27 01:38:34;;;;;;;;;;;;;;;;;;5009063;28;19924;-70
2023/08/27 01:41:05;;;;;;;;;;;;;;;;;;5027272;28;19954;-70
2023/08/27 01:43:30;;;;;;;;;;;;;;;;;;5009372;28;20608;-70
2023/08/27 01:45:58;;;;;;;;;;;;;;;;;;5005907;28;20402;-70
2023/08/27 01:48:28;;;;;;;;;;;;;;;;;;5029802;28;19921;-70
2023/08/27 01:50:53;;;;;;;;;;;;;;;;;;5009761;28;19935;-70
2023/08/27 01:53:21;;;;;;;;;;;;;;;;;;5009096;28;19970;-69
2023/08/27 01:55:50;;;;;;;;;;;;;;;;;;5008463;28;19956;-70
2023/08/27 01:58:18;;;;;;;;;;;;;;;;;;5025941;28;19923;-69
2023/08/27 02:00:46;;;;;;;;;;;;;;;;;;4992096;28;19921;-71
2023/08/27 02:03:11;;;;;;;;;;;;;;;;;;4991527;28;19935;-70
2023/08/27 02:05:39;;;;;;;;;;;;;;;;;;5025917;28;19916;-70
2023/08/27 02:08:07;;;;;;;;;;;;;;;;;;4990629;28;20252;-70
2023/08/27 02:10:32;;;;;;;;;;;;;;;;;;5031271;28;19948;-69
2023/08/27 02:12:57;;;;;;;;;;;;;;;;;;5010460;28;20297;-69
2023/08/27 02:15:25;;;;;;;;;;;;;;;;;;5011614;28;19916;-70
2023/08/27 02:17:50;;;;;;;;;;;;;;;;;;4994032;28;19923;-69
2023/08/27 02:20:18;;;;;;;;;;;;;;;;;;5012519;28;19927;-69
2023/08/27 02:22:44;;;;;;;;;;;;;;;;;;5009925;28;20400;-69
2023/08/27 02:25:12;;;;;;;;;;;;;;;;;;5009075;28;19924;-69
2023/08/27 02:27:40;;;;;;;;;;;;;;;;;;5011169;28;19920;-69
2023/08/27 02:30:08;;;;;;;;;;;;;;;;;;5012682;28;19992;-70
2023/08/27 02:32:33;;;;;;;;;;;;;;;;;;4994015;28;20365;-70
2023/08/27 02:34:59;;;;;;;;;;;;;;;;;;5013592;28;19916;-70
2023/08/27 02:37:24;;;;;;;;;;;;;;;;;;5009972;28;20394;-70
2023/08/27 02:39:54;;;;;;;;;;;;;;;;;;5014062;28;19971;-70
2023/08/27 02:42:22;;;;;;;;;;;;;;;;;;5029844;28;20318;-70
2023/08/27 02:44:48;;;;;;;;;;;;;;;;;;4992457;28;19977;-70
2023/08/27 02:47:13;;;;;;;;;;;;;;;;;;4992137;28;20431;-70
2023/08/27 02:49:38;;;;;;;;;;;;;;;;;;5011030;28;19928;-70
2023/08/27 02:52:06;;;;;;;;;;;;;;;;;;5011456;28;19996;-70
2023/08/27 02:54:36;;;;;;;;;;;;;;;;;;5009958;28;19920;-70
2023/08/27 02:57:04;;;;;;;;;;;;;;;;;;4998206;28;19963;-70
2023/08/27 02:59:29;;;;;;;;;;;;;;;;;;5011227;28;19920;-70
2023/08/27 03:01:58;;;;;;;;;;;;;;;;;;5011167;28;20039;-69
2023/08/27 03:04:23;;;;;;;;;;;;;;;;;;4992147;28;19973;-70
2023/08/27 03:06:51;;;;;;;;;;;;;;;;;;5025905;28;19916;-68
2023/08/27 03:09:16;;;;;;;;;;;;;;;;;;5009987;28;19923;-69
2023/08/27 03:11:45;;;;;;;;;;;;;;;;;;5028976;28;19924;-69
2023/08/27 03:14:13;;;;;;;;;;;;;;;;;;5011662;28;20581;-69
2023/08/27 03:16:42;;;;;;;;;;;;;;;;;;5027478;28;20050;-70
2023/08/27 03:19:08;;;;;;;;;;;;;;;;;;5010903;28;20414;-69
2023/08/27 03:21:34;;;;;;;;;;;;;;;;;;5010610;28;19960;-69
2023/08/27 03:23:59;;;;;;;;;;;;;;;;;;4996421;28;20565;-69
2023/08/27 03:26:24;;;;;;;;;;;;;;;;;;5011114;28;19927;-68
2023/08/27 03:28:50;;;;;;;;;;;;;;;;;;5009366;28;19928;-69
2023/08/27 03:31:20;;;;;;;;;;;;;;;;;;5011583;28;19924;-69
2023/08/27 03:33:45;;;;;;;;;;;;;;;;;;5026809;28;20038;-70
2023/08/27 03:36:13;;;;;;;;;;;;;;;;;;5011174;28;20088;-68
2023/08/27 03:38:38;;;;;;;;;;;;;;;;;;5010947;28;20016;-69
2023/08/27 03:41:03;;;;;;;;;;;;;;;;;;5029089;28;20036;-69
2023/08/27 03:43:32;;;;;;;;;;;;;;;;;;5012621;28;19920;-69
2023/08/27 03:46:00;;;;;;;;;;;;;;;;;;4991485;28;20109;-69
2023/08/27 03:48:25;;;;;;;;;;;;;;;;;;5031236;28;19925;-69
2023/08/27 03:50:51;;;;;;;;;;;;;;;;;;4992904;28;20441;-68
2023/08/27 03:53:19;;;;;;;;;;;;;;;;;;5011528;28;19928;-69
2023/08/27 03:55:44;;;;;;;;;;;;;;;;;;4993517;28;19917;-70
2023/08/27 03:58:12;;;;;;;;;;;;;;;;;;5028003;28;20007;-70
2023/08/27 04:00:39;;;;;;;;;;;;;;;;;;4990553;28;20003;-69
2023/08/27 04:03:05;;;;;;;;;;;;;;;;;;5029436;28;20594;-69
2023/08/27 04:05:31;;;;;;;;;;;;;;;;;;5011888;28;19927;-70
2023/08/27 04:07:56;;;;;;;;;;;;;;;;;;5029894;28;19920;-70
2023/08/27 04:10:22;;;;;;;;;;;;;;;;;;4993904;28;19921;-70
2023/08/27 04:12:50;;;;;;;;;;;;;;;;;;5009401;28;20952;-70
2023/08/27 04:15:15;;;;;;;;;;;;;;;;;;5011404;28;19946;-69
2023/08/27 04:17:41;;;;;;;;;;;;;;;;;;5026478;28;20391;-70
2023/08/27 04:20:06;;;;;;;;;;;;;;;;;;5011844;28;19921;-69
2023/08/27 04:22:31;;;;;;;;;;;;;;;;;;5010238;28;19928;-71
2023/08/27 04:24:59;;;;;;;;;;;;;;;;;;4993016;28;19966;-69
2023/08/27 04:27:29;;;;;;;;;;;;;;;;;;5010656;28;19924;-70
2023/08/27 04:29:55;;;;;;;;;;;;;;;;;;4995520;28;19987;-70
2023/08/27 04:35:14;;;;;;;;;;;;;;;;;;5027028;28;19916;-70
2023/08/27 04:37:40;;;;;;;;;;;;;;;;;;5027931;28;19927;-70
2023/08/27 04:40:08;;;;;;;;;;;;;;;;;;5010047;28;19921;-70
2023/08/27 04:42:34;;;;;;;;;;;;;;;;;;4996209;28;19917;-71
2023/08/27 04:44:59;;;;;;;;;;;;;;;;;;5028752;28;19924;-72
2023/08/27 04:47:25;;;;;;;;;;;;;;;;;;5008456;28;20019;-71
2023/08/27 04:49:50;;;;;;;;;;;;;;;;;;5028239;28;20031;-72
2023/08/27 04:52:18;;;;;;;;;;;;;;;;;;4991632;28;21277;-71
2023/08/27 04:54:45;;;;;;;;;;;;;;;;;;4989806;28;19952;-71
2023/08/27 04:57:11;;;;;;;;;;;;;;;;;;5024080;28;19927;-71
2023/08/27 04:59:41;;;;;;;;;;;;;;;;;;5006781;28;19995;-69
2023/08/27 05:02:06;;;;;;;;;;;;;;;;;;5021377;28;20388;-69
2023/08/27 05:04:32;;;;;;;;;;;;;;;;;;5008280;28;19936;-70
2023/08/27 05:06:57;;;;;;;;;;;;;;;;;;4989570;28;19944;-69
2023/08/27 05:09:23;;;;;;;;;;;;;;;;;;5008309;28;20474;-70
2023/08/27 05:11:48;;;;;;;;;;;;;;;;;;5027456;28;19925;-70
2023/08/27 05:14:14;;;;;;;;;;;;;;;;;;4991526;28;19921;-70
2023/08/27 05:16:42;;;;;;;;;;;;;;;;;;5025402;28;19994;-70
2023/08/27 05:19:08;;;;;;;;;;;;;;;;;;5025529;28;19920;-70
2023/08/27 05:21:33;;;;;;;;;;;;;;;;;;5027989;28;19921;-72
2023/08/27 05:23:59;;;;;;;;;;;;;;;;;;5023443;28;19988;-69
2023/08/27 05:26:24;;;;;;;;;;;;;;;;;;4991196;28;19921;-71
2023/08/27 05:28:49;;;;;;;;;;;;;;;;;;4990878;28;19927;-69
2023/08/27 05:31:15;;;;;;;;;;;;;;;;;;5023133;28;21654;-70
2023/08/27 05:33:40;;;;;;;;;;;;;;;;;;4993084;28;19916;-70
2023/08/27 05:36:05;;;;;;;;;;;;;;;;;;5006558;28;20261;-70
2023/08/27 05:38:31;;;;;;;;;;;;;;;;;;5006165;28;20426;-71
2023/08/27 05:40:56;;;;;;;;;;;;;;;;;;4992330;28;19928;-70
2023/08/27 05:43:25;;;;;;;;;;;;;;;;;;5000010;28;21882;-69
2023/08/27 05:45:53;;;;;;;;;;;;;;;;;;5010270;28;19994;-70
2023/08/27 05:48:18;;;;;;;;;;;;;;;;;;5022131;28;20379;-70
2023/08/27 05:50:44;;;;;;;;;;;;;;;;;;5012563;28;19924;-71
2023/08/27 05:53:10;;;;;;;;;;;;;;;;;;5027572;28;19960;-70
2023/08/27 05:55:36;;;;;;;;;;;;;;;;;;5008917;28;19960;-70
2023/08/27 05:58:02;;;;;;;;;;;;;;;;;;4991861;28;20219;-70
2023/08/27 06:00:27;;;;;;;;;;;;;;;;;;5031930;28;19916;-69
2023/08/27 06:02:52;;;;;;;;;;;;;;;;;;4990774;28;19936;-69
2023/08/27 06:05:20;;;;;;;;;;;;;;;;;;5009357;28;19921;-70
2023/08/27 06:07:45;;;;;;;;;;;;;;;;;;5002952;28;20151;-69
2023/08/27 06:10:11;;;;;;;;;;;;;;;;;;5009263;28;19920;-70
2023/08/27 06:12:36;;;;;;;;;;;;;;;;;;5004013;28;20296;-70
2023/08/27 06:15:02;;;;;;;;;;;;;;;;;;5024130;28;19928;-70
2023/08/27 06:17:27;;;;;;;;;;;;;;;;;;4988125;28;19999;-70
2023/08/27 06:19:53;;;;;;;;;;;;;;;;;;5009140;28;21057;-69
2023/08/27 06:22:18;;;;;;;;;;;;;;;;;;4993568;28;20025;-69
2023/08/27 06:24:44;;;;;;;;;;;;;;;;;;5011041;28;19920;-69
2023/08/27 06:27:09;;;;;;;;;;;;;;;;;;5027174;28;19927;-69
2023/08/27 06:29:35;;;;;;;;;;;;;;;;;;5028665;28;19920;-69
2023/08/27 06:32:00;;;;;;;;;;;;;;;;;;5010707;28;19924;-70
2023/08/27 06:34:28;;;;;;;;;;;;;;;;;;5008400;28;19967;-70
2023/08/27 06:36:56;;;;;;;;;;;;;;;;;;5012641;28;19923;-71
2023/08/27 06:39:21;;;;;;;;;;;;;;;;;;4991414;28;19921;-72
2023/08/27 06:41:46;;;;;;;;;;;;;;;;;;5004846;28;19920;-70
2023/08/27 06:44:12;;;;;;;;;;;;;;;;;;5010984;28;19921;-70
2023/08/27 06:46:37;;;;;;;;;;;;;;;;;;5006212;28;19928;-70
2023/08/27 06:49:03;;;;;;;;;;;;;;;;;;5007487;28;19927;-70
2023/08/27 06:51:28;;;;;;;;;;;;;;;;;;5008971;28;19924;-70
2023/08/27 06:53:53;;;;;;;;;;;;;;;;;;5007923;28;21844;-70
2023/08/27 06:56:19;;;;;;;;;;;;;;;;;;5009563;28;19917;-71
2023/08/27 06:58:48;;;;;;;;;;;;;;;;;;5008506;28;20356;-71
2023/08/27 07:01:14;;;;;;;;;;;;;;;;;;4993436;28;19921;-72
2023/08/27 07:03:39;;;;;;;;;;;;;;;;;;4989197;28;19935;-72
2023/08/27 07:06:05;;;;;;;;;;;;;;;;;;5010735;28;19917;-71
2023/08/27 07:08:30;;;;;;;;;;;;;;;;;;5009544;28;21760;-73
2023/08/27 07:10:56;;;;;;;;;;;;;;;;;;5025251;28;19928;-73
2023/08/27 07:13:21;;;;;;;;;;;;;;;;;;5007684;28;20048;-71
2023/08/27 07:15:47;;;;;;;;;;;;;;;;;;5005265;28;20461;-70
2023/08/27 07:18:15;;;;;;;;;;;;;;;;;;5009045;28;19968;-71
2023/08/27 07:20:40;;;;;;;;;;;;;;;;;;5007979;28;19931;-71
2023/08/27 07:23:06;;;;;;;;;;;;;;;;;;5010849;28;20484;-71
2023/08/27 07:25:34;;;;;;;;;;;;;;;;;;5001578;28;20024;-70
2023/08/27 07:27:59;;;;;;;;;;;;;;;;;;5011420;28;19916;-71
2023/08/27 07:30:25;;;;;;;;;;;;;;;;;;5010755;28;21889;-72
2023/08/27 07:32:50;;;;;;;;;;;;;;;;;;5026735;28;19955;-71
2023/08/27 07:35:16;;;;;;;;;;;;;;;;;;5023625;28;19923;-71
2023/08/27 07:37:41;;;;;;;;;;;;;;;;;;4992392;28;20555;-71
2023/08/27 07:40:12;;;;;;;;;;;;;;;;;;5008108;28;19924;-71
2023/08/27 07:42:38;;;;;;;;;;;;;;;;;;5006507;28;19950;-71
2023/08/27 07:45:27;;;;;;;;;;;;;;;;;;5013279;28;19946;-71
2023/08/27 07:47:53;;;;;;;;;;;;;;;;;;4999925;28;19920;-71
2023/08/27 07:57:08;;;;;;;;;;;;;;;;;;4992048;28;19984;-89
2023/08/27 07:59:51;;;;;;;;;;;;;;;;;;5049071;28;19917;-91
2023/08/27 08:02:36;;;;;;;;;;;;;;;;;;5051922;28;19921;-88
2023/08/27 08:05:06;;;;;;;;;;;;;;;;;;5015394;28;19923;-88
2023/08/27 08:07:35;;;;;;;;;;;;;;;;;;5034159;28;19913;-88
2023/08/27 08:10:06;;;;;;;;;;;;;;;;;;5030858;28;19932;-91
2023/08/27 08:12:32;;;;;;;;;;;;;;;;;;5036115;28;19983;-89
2023/08/27 08:14:58;;;;;;;;;;;;;;;;;;5041140;28;19976;-90
2023/08/27 08:17:37;;;;;;;;;;;;;;;;;;5043981;28;19971;-89
2023/08/27 08:23:18;;;;;;;;;;;;;;;;;;5033954;28;19913;-91
2023/08/27 08:25:44;;;;;;;;;;;;;;;;;;5030611;28;19963;-88
2023/08/27 08:31:07;;;;;;;;;;;;;;;;;;5030223;28;19986;-88
2023/08/27 08:33:35;;;;;;;;;;;;;;;;;;5043097;28;19925;-90
2023/08/27 08:36:16;;;;;;;;;;;;;;;;;;5022587;28;19982;-89
2023/08/27 08:42:17;;;;;;;;;;;;;;;;;;5043762;28;19924;-90
2023/08/27 08:44:44;;;;;;;;;;;;;;;;;;5040916;28;19914;-89
2023/08/27 08:47:10;;;;;;;;;;;;;;;;;;5033443;28;19931;-88
2023/08/27 08:50:11;;;;;;;;;;;;;;;;;;5044087;28;19923;-89
2023/08/27 08:52:50;;;;;;;;;;;;;;;;;;5046333;28;19925;-88
2023/08/27 08:55:33;;;;;;;;;;;;;;;;;;;;;
2023/08/27 09:01:46;;;;;;;;;;;;;;;;;;5058859;28;19939;-89
2023/08/27 09:04:21;;;;;;;;;;;;;;;;;;5020661;28;19931;-88
2023/08/27 09:06:47;;;;;;;;;;;;;;;;;;5035435;28;19913;-87
2023/08/27 09:09:13;;;;;;;;;;;;;;;;;;5039321;28;19932;-86
2023/08/27 09:14:13;;;;;;;;;;;;;;;;;;4988898;28;20582;-70
2023/08/27 09:16:44;;;;;;;;;;;;;;;;;;4971956;28;19987;-71
2023/08/27 09:19:10;;;;;;;;;;;;;;;;;;4968197;28;19952;-70
2023/08/27 09:21:35;;;;;;;;;;;;;;;;;;4956393;28;21942;-71
2023/08/27 09:24:00;;;;;;;;;;;;;;;;;;4956393;28;19924;-71
2023/08/27 09:26:26;;;;;;;;;;;;;;;;;;4991185;28;19929;-71
2023/08/27 09:31:42;;;;;;;;;;;;;;;;;;4987887;28;19926;-69
2023/08/27 09:34:08;;;;;;;;;;;;;;;;;;4975713;28;19921;-71
2023/08/27 09:36:36;;;;;;;;;;;;;;;;;;4976596;28;19928;-71
2023/08/27 09:39:03;;;;;;;;;;;;;;;;;;4976294;28;19928;-70
2023/08/27 09:41:30;;;;;;;;;;;;;;;;;;4976641;28;19917;-71
2023/08/27 09:43:56;;;;;;;;;;;;;;;;;;4976925;28;20067;-68
2023/08/27 09:46:21;;;;;;;;;;;;;;;;;;4993986;28;19922;-69
2023/08/27 09:48:46;;;;;;;;;;;;;;;;;;4976088;28;19922;-70
2023/08/27 09:51:14;;;;;;;;;;;;;;;;;;4971642;28;19953;-70
2023/08/27 09:53:40;;;;;;;;;;;;;;;;;;4974210;28;19921;-70
2023/08/27 09:56:07;;;;;;;;;;;;;;;;;;4955314;28;19929;-71
2023/08/27 09:58:33;;;;;;;;;;;;;;;;;;4957580;28;19928;-70
2023/08/27 10:00:59;;;;;;;;;;;;;;;;;;4955480;28;19922;-69
2023/08/27 10:03:36;;;;;;;;;;;;;;;;;;4973780;28;19922;-69
2023/08/27 10:06:04;;;;;;;;;;;;;;;;;;4953372;28;19921;-69
2023/08/27 10:08:32;;;;;;;;;;;;;;;;;;4968442;28;19957;-69
2023/08/27 10:10:57;;;;;;;;;;;;;;;;;;4986032;28;20292;-70
2023/08/27 10:13:28;;;;;;;;;;;;;;;;;;4987582;28;21222;-71
2023/08/27 10:15:54;;;;;;;;;;;;;;;;;;4969536;28;19921;-71
2023/08/27 10:18:24;;;;;;;;;;;;;;;;;;4984799;28;19917;-69
2023/08/27 10:20:52;;;;;;;;;;;;;;;;;;4970171;28;19918;-69
2023/08/27 10:23:17;;;;;;;;;;;;;;;;;;4955389;28;19921;-69
2023/08/27 10:25:43;;;;;;;;;;;;;;;;;;4988526;28;19917;-69
2023/08/27 10:28:08;;;;;;;;;;;;;;;;;;4969186;28;19980;-69
2023/08/27 10:30:34;;;;;;;;;;;;;;;;;;4952455;28;20347;-69
2023/08/27 10:32:59;;;;;;;;;;;;;;;;;;4972685;28;19932;-70
2023/08/27 10:35:25;;;;;;;;;;;;;;;;;;4970766;28;19917;-70
2023/08/27 10:37:53;;;;;;;;;;;;;;;;;;4970862;28;19965;-74
2023/08/27 10:40:21;;;;;;;;;;;;;;;;;;4972268;28;20420;-66
2023/08/27 10:46:05;;;;;;;;;;;;;;;;;;4989806;28;19960;-68
2023/08/27 10:48:31;;;;;;;;;;;;;;;;;;4968824;28;19917;-69
2023/08/27 10:51:02;;;;;;;;;;;;;;;;;;4972614;28;19918;-69
2023/08/27 10:53:29;;;;;;;;;;;;;;;;;;4985236;28;21852;-69
2023/08/27 10:55:55;;;;;;;;;;;;;;;;;;4969673;28;20625;-70
2023/08/27 10:58:23;;;;;;;;;;;;;;;;;;4951809;28;19928;-68
2023/08/27 11:00:51;;;;;;;;;;;;;;;;;;4967076;28;19922;-69
2023/08/27 11:03:19;;;;;;;;;;;;;;;;;;4969061;28;19922;-69
2023/08/27 11:05:48;;;;;;;;;;;;;;;;;;4969731;28;20438;-73
2023/08/27 11:08:17;;;;;;;;;;;;;;;;;;4971616;28;19917;-69
2023/08/27 11:10:45;;;;;;;;;;;;;;;;;;4988403;28;19917;-71
2023/08/27 11:13:13;;;;;;;;;;;;;;;;;;4970397;28;19936;-69
2023/08/27 11:15:38;;;;;;;;;;;;;;;;;;4952685;28;19972;-68
2023/08/27 11:18:03;;;;;;;;;;;;;;;;;;4987852;28;19952;-69
2023/08/27 11:20:28;;;;;;;;;;;;;;;;;;4953009;28;19929;-71
2023/08/27 11:22:59;;;;;;;;;;;;;;;;;;4953294;28;19922;-73
2023/08/27 11:25:24;;;;;;;;;;;;;;;;;;4981356;28;19971;-70
2023/08/27 11:27:52;;;;;;;;;;;;;;;;;;4988005;28;19925;-71
2023/08/27 11:30:22;;;;;;;;;;;;;;;;;;4955273;28;19922;-67
2023/08/27 11:32:47;;;;;;;;;;;;;;;;;;4986910;28;19926;-68
2023/08/27 11:35:14;;;;;;;;;;;;;;;;;;4970506;28;19945;-68
2023/08/27 11:37:42;;;;;;;;;;;;;;;;;;4969265;28;19922;-69
2023/08/27 11:43:27;;;;;;;;;;;;;;;;;;4989548;28;19993;-70
2023/08/27 11:45:52;;;;;;;;;;;;;;;;;;4970505;28;19985;-68
2023/08/27 11:48:18;;;;;;;;;;;;;;;;;;4973159;28;19917;-68
2023/08/27 11:50:43;;;;;;;;;;;;;;;;;;4973283;28;21765;-72
2023/08/27 11:53:11;;;;;;;;;;;;;;;;;;4969583;28;19929;-71
2023/08/27 11:55:39;;;;;;;;;;;;;;;;;;4987649;28;19921;-69
2023/08/27 11:58:07;;;;;;;;;;;;;;;;;;4985115;28;21943;-70
2023/08/27 12:00:32;;;;;;;;;;;;;;;;;;4970606;28;19928;-69
2023/08/27 12:02:58;;;;;;;;;;;;;;;;;;4969696;28;19929;-67
2023/08/27 12:05:26;;;;;;;;;;;;;;;;;;4954212;28;19984;-67
2023/08/27 12:07:52;;;;;;;;;;;;;;;;;;4966748;28;19921;-70
2023/08/27 12:13:34;;;;;;;;;;;;;;;;;;4988998;28;20898;-71
2023/08/27 12:16:03;;;;;;;;;;;;;;;;;;4968472;28;19921;-69
2023/08/27 12:18:32;;;;;;;;;;;;;;;;;;4970191;28;19928;-68
2023/08/27 12:20:58;;;;;;;;;;;;;;;;;;4987835;28;19922;-75
2023/08/27 12:23:23;;;;;;;;;;;;;;;;;;4986693;28;19932;-73
2023/08/27 12:25:49;;;;;;;;;;;;;;;;;;4989702;28;20004;-74
2023/08/27 12:28:14;;;;;;;;;;;;;;;;;;4988983;28;19952;-76
2023/08/27 12:30:40;;;;;;;;;;;;;;;;;;4985707;28;19921;-77
2023/08/27 12:33:05;;;;;;;;;;;;;;;;;;4970110;28;20090;-76
2023/08/27 12:35:30;;;;;;;;;;;;;;;;;;4954063;28;19922;-75
2023/08/27 12:41:12;;;;;;;;;;;;;;;;;;4981188;28;20025;-78
2023/08/27 12:43:39;;;;;;;;;;;;;;;;;;4967112;28;19926;-78
2023/08/27 12:46:05;;;;;;;;;;;;;;;;;;4953815;28;19924;-78
2023/08/27 12:48:31;;;;;;;;;;;;;;;;;;4953925;28;21798;-77
2023/08/27 12:50:56;;;;;;;;;;;;;;;;;;4966641;28;19924;-74
2023/08/27 12:53:21;;;;;;;;;;;;;;;;;;4987503;28;19922;-74
2023/08/27 12:55:47;;;;;;;;;;;;;;;;;;4987721;28;19937;-76
2023/08/27 12:58:12;;;;;;;;;;;;;;;;;;4986437;28;20741;-75
2023/08/27 13:00:41;;;;;;;;;;;;;;;;;;4969154;28;19968;-75
2023/08/27 13:03:06;;;;;;;;;;;;;;;;;;4969221;28;19928;-76
2023/08/27 13:08:26;;;;;;;;;;;;;;;;;;4965562;28;19921;-73
2023/08/27 13:10:52;;;;;;;;;;;;;;;;;;4961655;28;20438;-75
2023/08/27 13:13:17;;;;;;;;;;;;;;;;;;4947401;28;20635;-72
2023/08/27 13:15:43;;;;;;;;;;;;;;;;;;4966343;28;19918;-72
2023/08/27 13:18:08;;;;;;;;;;;;;;;;;;4962801;28;20162;-73
2023/08/27 13:20:33;;;;;;;;;;;;;;;;;;4949246;28;20017;-71
2023/08/27 13:22:59;;;;;;;;;;;;;;;;;;4964169;28;20121;-72
2023/08/27 13:25:26;;;;;;;;;;;;;;;;;;4960757;28;19926;-71
2023/08/27 13:27:57;;;;;;;;;;;;;;;;;;4946069;28;19930;-71
2023/08/27 13:30:25;;;;;;;;;;;;;;;;;;4966667;28;19922;-72
2023/08/27 13:32:53;;;;;;;;;;;;;;;;;;4966833;28;20005;-72
2023/08/27 13:35:19;;;;;;;;;;;;;;;;;;4949511;28;20043;-73
2023/08/27 13:37:44;;;;;;;;;;;;;;;;;;4966919;28;19952;-71
2023/08/27 13:40:10;;;;;;;;;;;;;;;;;;4966427;28;20005;-71
2023/08/27 13:42:36;;;;;;;;;;;;;;;;;;4968429;28;20499;-70
2023/08/27 13:45:01;;;;;;;;;;;;;;;;;;4964963;28;19922;-71
2023/08/27 13:47:32;;;;;;;;;;;;;;;;;;4966034;28;19918;-71
2023/08/27 13:50:00;;;;;;;;;;;;;;;;;;4964315;28;19933;-72
2023/08/27 13:52:28;;;;;;;;;;;;;;;;;;4962067;28;19917;-72
2023/08/27 13:54:54;;;;;;;;;;;;;;;;;;4966307;28;19921;-72
2023/08/27 13:57:19;;;;;;;;;;;;;;;;;;4968248;28;19949;-72
2023/08/27 13:59:44;;;;;;;;;;;;;;;;;;4947148;28;20680;-71
2023/08/27 14:02:12;;;;;;;;;;;;;;;;;;4960179;28;19922;-71
2023/08/27 14:04:37;;;;;;;;;;;;;;;;;;4964167;28;19968;-73
2023/08/27 14:07:05;;;;;;;;;;;;;;;;;;4945438;28;19921;-72
2023/08/27 14:09:30;;;;;;;;;;;;;;;;;;4967513;28;19925;-71
2023/08/27 14:11:57;;;;;;;;;;;;;;;;;;4965340;28;19918;-71
2023/08/27 14:14:22;;;;;;;;;;;;;;;;;;4949780;28;19926;-71
2023/08/27 14:16:48;;;;;;;;;;;;;;;;;;4965129;28;20011;-72
2023/08/27 14:19:14;;;;;;;;;;;;;;;;;;4943932;28;19922;-72
2023/08/27 14:21:44;;;;;;;;;;;;;;;;;;4945778;28;19957;-73
2023/08/27 14:27:26;;;;;;;;;;;;;;;;;;4970275;28;19932;-71
2023/08/27 14:29:52;;;;;;;;;;;;;;;;;;4963850;28;20882;-72
2023/08/27 14:32:20;;;;;;;;;;;;;;;;;;4951157;28;19921;-72
2023/08/27 14:34:46;;;;;;;;;;;;;;;;;;4970815;28;19918;-72
2023/08/27 14:40:35;;;;;;;;;;;;;;;;;;4968589;28;19952;-74
2023/08/27 14:43:00;;;;;;;;;;;;;;;;;;4967500;28;19926;-71
2023/08/27 14:45:26;;;;;;;;;;;;;;;;;;4968829;28;19922;-71
2023/08/27 14:47:55;;;;;;;;;;;;;;;;;;4964822;28;19961;-71
2023/08/27 14:50:20;;;;;;;;;;;;;;;;;;4968237;28;19983;-71
2023/08/27 14:52:45;;;;;;;;;;;;;;;;;;4965426;28;19922;-72
2023/08/27 14:55:10;;;;;;;;;;;;;;;;;;4965507;28;19921;-72
2023/08/27 14:57:36;;;;;;;;;;;;;;;;;;4963895;28;19921;-71
2023/08/27 15:00:08;;;;;;;;;;;;;;;;;;4948478;28;19969;-72
2023/08/27 15:02:36;;;;;;;;;;;;;;;;;;4949020;28;19926;-73
2023/08/27 15:05:01;;;;;;;;;;;;;;;;;;4969004;28;20495;-72
2023/08/27 15:07:27;;;;;;;;;;;;;;;;;;4950810;28;19945;-72
2023/08/27 15:09:55;;;;;;;;;;;;;;;;;;4953343;28;19922;-72
2023/08/27 15:12:21;;;;;;;;;;;;;;;;;;4969181;28;19965;-72
2023/08/27 15:14:51;;;;;;;;;;;;;;;;;;4989600;28;19925;-72
2023/08/27 15:17:16;;;;;;;;;;;;;;;;;;4966519;28;19929;-71
2023/08/27 15:19:41;;;;;;;;;;;;;;;;;;4971378;28;19922;-72
2023/08/27 15:22:09;;;;;;;;;;;;;;;;;;4988497;28;19936;-71
2023/08/27 15:24:35;;;;;;;;;;;;;;;;;;4967494;28;19917;-71
2023/08/27 15:27:00;;;;;;;;;;;;;;;;;;4978791;28;19964;-74
2023/08/27 15:29:26;;;;;;;;;;;;;;;;;;4956239;28;19921;-76
2023/08/27 15:31:51;;;;;;;;;;;;;;;;;;4984648;28;19928;-75
2023/08/27 15:34:17;;;;;;;;;;;;;;;;;;4989111;28;20232;-75
2023/08/27 15:36:42;;;;;;;;;;;;;;;;;;4989052;28;19918;-75
2023/08/27 15:39:07;;;;;;;;;;;;;;;;;;4946236;28;20717;-74
2023/08/27 15:41:35;;;;;;;;;;;;;;;;;;4965172;28;20376;-74
2023/08/27 15:44:01;;;;;;;;;;;;;;;;;;4987945;28;21466;-72
2023/08/27 15:49:43;;;;;;;;;;;;;;;;;;4988112;28;19936;-74
2023/08/27 15:52:08;;;;;;;;;;;;;;;;;;4981069;28;19921;-75
2023/08/27 15:54:34;;;;;;;;;;;;;;;;;;4965622;28;19930;-74
2023/08/27 15:56:59;;;;;;;;;;;;;;;;;;4981705;28;20840;-73
2023/08/27 15:59:25;;;;;;;;;;;;;;;;;;4965474;28;19921;-75
2023/08/27 16:01:50;;;;;;;;;;;;;;;;;;4965886;28;20064;-74
2023/08/27 16:04:16;;;;;;;;;;;;;;;;;;4967709;28;19917;-73
2023/08/27 16:06:42;;;;;;;;;;;;;;;;;;4966423;28;20028;-73
2023/08/27 16:09:07;;;;;;;;;;;;;;;;;;4967635;28;19918;-74
2023/08/27 16:11:36;;;;;;;;;;;;;;;;;;4967718;28;19997;-73
2023/08/27 16:14:01;;;;;;;;;;;;;;;;;;4967741;28;19921;-73
2023/08/27 16:16:31;;;;;;;;;;;;;;;;;;4981854;28;20372;-73
2023/08/27 16:18:56;;;;;;;;;;;;;;;;;;4985017;28;20613;-73
2023/08/27 16:21:22;;;;;;;;;;;;;;;;;;4948114;28;19931;-72
2023/08/27 16:23:47;;;;;;;;;;;;;;;;;;4987628;28;19925;-72
2023/08/27 16:26:13;;;;;;;;;;;;;;;;;;4966337;28;19970;-72
2023/08/27 16:28:39;;;;;;;;;;;;;;;;;;4986576;28;19921;-71
2023/08/27 16:31:04;;;;;;;;;;;;;;;;;;4969213;28;20412;-71
2023/08/27 16:33:29;;;;;;;;;;;;;;;;;;4987687;28;19922;-73
2023/08/27 16:36:00;;;;;;;;;;;;;;;;;;4968488;28;19918;-70
2023/08/27 16:38:28;;;;;;;;;;;;;;;;;;4967429;28;19929;-72
2023/08/27 16:40:56;;;;;;;;;;;;;;;;;;4965593;28;19927;-73
2023/08/27 16:43:24;;;;;;;;;;;;;;;;;;4986414;28;20285;-73
2023/08/27 16:45:51;;;;;;;;;;;;;;;;;;4989267;28;19917;-70
2023/08/27 16:48:17;;;;;;;;;;;;;;;;;;4987672;28;20806;-70
2023/08/27 16:50:42;;;;;;;;;;;;;;;;;;4984088;28;20012;-72
2023/08/27 16:53:07;;;;;;;;;;;;;;;;;;4969102;28;19925;-71
2023/08/27 16:55:35;;;;;;;;;;;;;;;;;;4982372;28;19921;-72
2023/08/27 16:58:01;;;;;;;;;;;;;;;;;;4985082;28;19921;-72
2023/08/27 17:00:28;;;;;;;;;;;;;;;;;;4966494;28;19921;-72
2023/08/27 17:02:56;;;;;;;;;;;;;;;;;;4982776;28;19931;-74
2023/08/27 17:05:22;;;;;;;;;;;;;;;;;;4982511;28;20380;-71
2023/08/27 17:07:47;;;;;;;;;;;;;;;;;;4966584;28;20048;-71
2023/08/27 17:10:15;;;;;;;;;;;;;;;;;;4964157;28;19964;-72
2023/08/27 17:12:41;;;;;;;;;;;;;;;;;;4968678;28;20067;-73
2023/08/27 17:15:07;;;;;;;;;;;;;;;;;;4945308;28;20699;-71
2023/08/27 17:17:32;;;;;;;;;;;;;;;;;;4962589;28;19922;-71
2023/08/27 17:19:58;;;;;;;;;;;;;;;;;;4963098;28;19921;-70
2023/08/27 17:22:25;;;;;;;;;;;;;;;;;;4960798;28;21024;-72
2023/08/27 17:24:50;;;;;;;;;;;;;;;;;;4964541;28;19925;-73
2023/08/27 17:27:15;;;;;;;;;;;;;;;;;;4967132;28;20548;-73
2023/08/27 17:29:41;;;;;;;;;;;;;;;;;;4961412;28;19922;-73
2023/08/27 17:32:08;;;;;;;;;;;;;;;;;;4968669;28;19921;-73
2023/08/27 17:34:34;;;;;;;;;;;;;;;;;;4966661;28;19928;-67
2023/08/27 17:37:00;;;;;;;;;;;;;;;;;;4965386;28;19992;-70